16 de agosto de 2022

Hora Código Tiempo Temp. Visibilidad Cielo nuboso Viento METAR/SPECI
4:00 a. m.
V
70 °F 9 mi - 060° 060° 11 - 18 kt METAR CYTZ 160800Z AUTO 06011G18KT 9SM CLR 21/12 A3003 RMK SLP170 DENSITY ALT 900FT
3:00 a. m.
V
70 °F 9 mi - 050° 050° 8 kt METAR CYTZ 160700Z AUTO 05008KT 9SM CLR 21/13 A3003 RMK SLP170 DENSITY ALT 900FT
2:00 a. m.
V
72 °F 9 mi - 020° 020° 7 kt METAR CYTZ 160600Z AUTO 02007KT 9SM FEW100 22/12 A3003 RMK SLP169 DENSITY ALT 1100FT
1:24 a. m.
V
72 °F 7 mi - Var Var 5 kt METAR CYTZ 160524Z AUTO VRB05KT 7SM FEW100 22/13 A3003 RMK SLP171 DENSITY ALT 1100FT
1:18 a. m.
V
72 °F 5 mi - 040° 040° 4 kt METAR CYTZ 160518Z AUTO 04004KT 310V120 5SM HZ CLR 22/12 A3003 RMK SLP171 DENSITY ALT 1000FT
1:00 a. m.
V
73 °F 9 mi - 330° 330° 4 kt METAR CYTZ 160500Z AUTO 33004KT 300V040 9SM CLR 23/13 A3003 RMK SLP172 DENSITY ALT 1100FT
12:00 a. m.
V
72 °F 9 mi - Var 000° 0 kt METAR CYTZ 160400Z AUTO 00000KT 9SM SCT140 22/12 A3003 RMK SLP171 DENSITY ALT 1000FT

15 de agosto de 2022

Hora Código Tiempo Temp. Visibilidad Cielo nuboso Viento METAR/SPECI
11:00 p. m.
V
73 °F 9 mi - 320° 320° 12 kt METAR CYTZ 160300Z AUTO 32012KT 9SM FEW086 23/11 A3003 RMK SLP170 DENSITY ALT 1200FT
10:00 p. m.
V
75 °F 9 mi - 320° 320° 4 kt METAR CYTZ 160200Z AUTO 32004KT 9SM FEW150 24/09 A3003 RMK SLP169 DENSITY ALT 1300FT
9:00 p. m.
V
72 °F 9 mi 15.000 ft 110° 110° 3 kt METAR CYTZ 160100Z AUTO 11003KT 050V120 9SM OVC150 22/14 A3001 RMK SLP164 DENSITY ALT 1100FT
8:00 p. m.
V
73 °F 9 mi 14.000 ft 080° 080° 3 kt METAR CYTZ 160000Z AUTO 08003KT 9SM FEW100 BKN140 23/14 A3000 RMK SLP160 DENSITY ALT 1200FT
7:00 p. m.
V
75 °F 9 mi 15.000 ft 100° 100° 5 kt METAR CYTZ 152300Z AUTO 10005KT 060V130 9SM BKN150 24/11 A2999 RMK SLP157 DENSITY ALT 1300FT
6:00 p. m.
V
77 °F 9 mi - 050° 050° 10 kt METAR CYTZ 152200Z AUTO 05010KT 9SM CLR 25/12 A2999 RMK SLP157 DENSITY ALT 1400FT
5:00 p. m.
V
75 °F 9 mi - 080° 080° 6 kt METAR CYTZ 152100Z AUTO 08006KT 9SM FEW150 24/14 A2999 RMK SLP158 DENSITY ALT 1400FT
4:00 p. m.
V
75 °F 9 mi - 080° 080° 9 - 15 kt METAR CYTZ 152000Z AUTO 08009G15KT 050V140 9SM CLR 24/12 A3000 RMK SLP159 DENSITY ALT 1300FT
3:00 p. m.
V
77 °F 9 mi - 050° 050° 13 kt METAR CYTZ 151900Z AUTO 05013KT 9SM CLR 25/12 A3001 RMK SLP162 DENSITY ALT 1400FT
2:00 p. m.
V
77 °F 9 mi - 070° 070° 8 - 15 kt METAR CYTZ 151800Z AUTO 07008G15KT 050V130 9SM CLR 25/15 A3001 RMK SLP165 DENSITY ALT 1400FT
1:00 p. m.
V
75 °F 9 mi - 060° 060° 11 kt METAR CYTZ 151700Z AUTO 06011KT 9SM SCT140 24/14 A3001 RMK SLP165 DENSITY ALT 1300FT
12:00 p. m.
V
77 °F 9 mi 14.000 ft 060° 060° 14 kt METAR CYTZ 151600Z AUTO 06014KT 9SM BKN140 25/13 A3002 RMK SLP167 DENSITY ALT 1400FT
11:00 a. m.
V
77 °F 9 mi 13.000 ft 060° 060° 14 - 19 kt METAR CYTZ 151500Z AUTO 06014G19KT 9SM BKN130 25/13 A3003 RMK SLP171 DENSITY ALT 1400FT
10:00 a. m.
V
73 °F 9 mi 12.000 ft 050° 050° 15 - 21 kt METAR CYTZ 151400Z AUTO 05015G21KT 9SM OVC120 23/13 A3002 RMK SLP167 DENSITY ALT 1200FT
9:00 a. m.
V
73 °F 9 mi 12.000 ft 050° 050° 18 kt METAR CYTZ 151300Z AUTO 05018KT 9SM OVC120 23/12 A3002 RMK SLP166 DENSITY ALT 1100FT
8:00 a. m.
V
70 °F 9 mi 12.000 ft 050° 050° 14 kt METAR CYTZ 151200Z AUTO 05014KT 9SM BKN120 21/11 A3000 RMK SLP161 DENSITY ALT 1000FT
7:00 a. m.
V
72 °F 9 mi - 040° 040° 16 - 21 kt METAR CYTZ 151100Z AUTO 04016G21KT 9SM SCT120 22/10 A3000 RMK SLP159 DENSITY ALT 1000FT
6:00 a. m.
V
70 °F 9 mi - 040° 040° 15 kt METAR CYTZ 151000Z AUTO 04015KT 9SM CLR 21/10 A2998 RMK SLP154 DENSITY ALT 1000FT
5:00 a. m.
V
70 °F 9 mi - 050° 050° 9 - 16 kt METAR CYTZ 150900Z AUTO 05009G16KT 9SM CLR 21/10 A2998 RMK SLP153 DENSITY ALT 1000FT
4:00 a. m.
V
70 °F 9 mi 14.000 ft 050° 050° 8 kt METAR CYTZ 150800Z AUTO 05008KT 9SM OVC140 21/11 A2998 RMK SLP155 DENSITY ALT 1000FT
3:00 a. m.
V
72 °F 9 mi 14.000 ft 040° 040° 14 kt METAR CYTZ 150700Z AUTO 04014KT 9SM OVC140 22/11 A2999 RMK SLP157 DENSITY ALT 1100FT
2:00 a. m.
V
72 °F 9 mi 14.000 ft 040° 040° 8 - 17 kt METAR CYTZ 150600Z AUTO 04008G17KT 9SM OVC140 22/11 A2999 RMK SLP158 DENSITY ALT 1100FT
1:00 a. m.
V
72 °F 9 mi 13.000 ft 040° 040° 13 - 18 kt METAR CYTZ 150500Z AUTO 04013G18KT 9SM BKN130 22/12 A3000 RMK SLP160 DENSITY ALT 1100FT
12:00 a. m.
V
70 °F 9 mi - 040° 040° 10 - 15 kt METAR CYTZ 150400Z AUTO 04010G15KT 9SM CLR 21/15 A3001 RMK SLP162 DENSITY ALT 1000FT

14 de agosto de 2022

Hora Código Tiempo Temp. Visibilidad Cielo nuboso Viento METAR/SPECI
11:00 p. m.
V
70 °F 9 mi - 060° 060° 10 - 15 kt METAR CYTZ 150300Z AUTO 06010G15KT 9SM CLR 21/16 A3001 RMK SLP162 DENSITY ALT 1000FT
10:00 p. m.
V
70 °F 9 mi - 050° 050° 14 kt METAR CYTZ 150200Z AUTO 05014KT 9SM CLR 21/15 A3000 RMK SLP161 DENSITY ALT 1000FT
9:00 p. m.
V
70 °F 9 mi - 050° 050° 12 kt METAR CYTZ 150100Z AUTO 05012KT 9SM CLR 21/16 A3000 RMK SLP159 DENSITY ALT 1000FT
8:00 p. m.
V
72 °F 9 mi - 060° 060° 13 kt METAR CYTZ 150000Z AUTO 06013KT 9SM CLR 22/16 A2999 RMK SLP157 DENSITY ALT 1000FT
7:00 p. m.
V
73 °F 9 mi - 060° 060° 14 kt METAR CYTZ 142300Z AUTO 06014KT 9SM FEW140 23/14 A2999 RMK SLP157 DENSITY ALT 1200FT
6:00 p. m.
V
75 °F 9 mi 14.000 ft 060° 060° 14 - 19 kt METAR CYTZ 142200Z AUTO 06014G19KT 9SM BKN140 24/14 A3000 RMK SLP159 DENSITY ALT 1300FT
5:00 p. m.
V
75 °F 9 mi - 060° 060° 15 kt METAR CYTZ 142100Z AUTO 06015KT 9SM SCT140 24/14 A3000 RMK SLP161 DENSITY ALT 1300FT
4:00 p. m.
V
73 °F 9 mi - 060° 060° 14 kt METAR CYTZ 142000Z AUTO 06014KT 9SM FEW076 23/15 A3001 RMK SLP164 DENSITY ALT 1200FT
3:00 p. m.
V
73 °F 9 mi 14.000 ft 070° 070° 12 - 17 kt METAR CYTZ 141900Z AUTO 07012G17KT 9SM BKN140 23/14 A3002 RMK SLP167 DENSITY ALT 1200FT
2:00 p. m.
V
75 °F 9 mi - 070° 070° 14 kt METAR CYTZ 141800Z AUTO 07014KT 9SM CLR 24/14 A3002 RMK SLP168 DENSITY ALT 1200FT
1:00 p. m.
V
73 °F 9 mi - 070° 070° 14 - 19 kt METAR CYTZ 141700Z AUTO 07014G19KT 9SM CLR 23/15 A3002 RMK SLP167 DENSITY ALT 1200FT
12:00 p. m.
V
72 °F 9 mi 14.000 ft 060° 060° 14 kt METAR CYTZ 141600Z AUTO 06014KT 9SM BKN140 22/16 A3003 RMK SLP171 DENSITY ALT 1100FT
11:00 a. m.
V
73 °F 9 mi 14.000 ft 070° 070° 11 - 16 kt METAR CYTZ 141500Z AUTO 07011G16KT 9SM OVC140 23/16 A3004 RMK SLP175 DENSITY ALT 1100FT
10:00 a. m.
V
72 °F 9 mi 14.000 ft 060° 060° 12 kt METAR CYTZ 141400Z AUTO 06012KT 9SM BKN140 22/17 A3004 RMK SLP175 DENSITY ALT 1100FT
9:00 a. m.
V
70 °F 9 mi 14.000 ft 070° 070° 10 - 16 kt METAR CYTZ 141300Z AUTO 07010G16KT 9SM BKN140 21/16 A3004 RMK SLP175 DENSITY ALT 900FT
8:00 a. m.
V
68 °F 9 mi 14.000 ft 060° 060° 9 - 15 kt METAR CYTZ 141200Z AUTO 06009G15KT 9SM SCT120 OVC140 20/14 A3004 RMK SLP174 DENSITY ALT 800FT
7:00 a. m.
V
68 °F 9 mi 12.000 ft 060° 060° 10 - 15 kt METAR CYTZ 141100Z AUTO 06010G15KT 9SM BKN120 OVC140 20/12 A3004 RMK SLP173 DENSITY ALT 800FT
6:00 a. m.
V
66 °F 9 mi 14.000 ft 060° 060° 9 - 15 kt METAR CYTZ 141000Z AUTO 06009G15KT 9SM BKN140 19/13 A3003 RMK SLP172 DENSITY ALT 700FT
Datos más antiguos

Nosotros y terceros seguimos tu comportamiento en Internet en nuestro sitio web con cookies. Si continúas, asumimos que estás de acuerdo con nuestra política de cookies. Más información